sensor_id;sensor_type;location;lat;lon;timestamp;P1;durP1;ratioP1;P2;durP2;ratioP2
78774;SDS011;68119;43.398;3.676;2024-01-15T00:02:35;9.02;;;5.68;;
78774;SDS011;68119;43.398;3.676;2024-01-15T00:05:01;9.77;;;5.38;;
78774;SDS011;68119;43.398;3.676;2024-01-15T00:07:30;7.55;;;4.45;;
78774;SDS011;68119;43.398;3.676;2024-01-15T00:10:06;6.60;;;3.55;;
78774;SDS011;68119;43.398;3.676;2024-01-15T00:12:35;6.85;;;3.50;;
78774;SDS011;68119;43.398;3.676;2024-01-15T00:15:01;5.47;;;3.40;;
78774;SDS011;68119;43.398;3.676;2024-01-15T00:17:29;5.32;;;3.45;;
78774;SDS011;68119;43.398;3.676;2024-01-15T00:19:56;6.38;;;3.33;;
78774;SDS011;68119;43.398;3.676;2024-01-15T00:22:25;6.28;;;3.50;;
78774;SDS011;68119;43.398;3.676;2024-01-15T00:24:59;6.18;;;2.83;;
78774;SDS011;68119;43.398;3.676;2024-01-15T00:27:28;5.60;;;2.88;;
78774;SDS011;68119;43.398;3.676;2024-01-15T00:29:59;4.93;;;2.90;;
78774;SDS011;68119;43.398;3.676;2024-01-15T00:32:26;5.18;;;2.60;;
78774;SDS011;68119;43.398;3.676;2024-01-15T00:35:06;6.47;;;2.47;;
78774;SDS011;68119;43.398;3.676;2024-01-15T00:37:32;3.42;;;2.20;;
78774;SDS011;68119;43.398;3.676;2024-01-15T00:39:58;4.95;;;2.55;;
78774;SDS011;68119;43.398;3.676;2024-01-15T00:42:35;4.07;;;1.95;;
78774;SDS011;68119;43.398;3.676;2024-01-15T00:45:05;2.72;;;2.10;;
78774;SDS011;68119;43.398;3.676;2024-01-15T00:47:33;2.95;;;2.30;;
78774;SDS011;68119;43.398;3.676;2024-01-15T00:50:00;3.97;;;2.15;;
78774;SDS011;68119;43.398;3.676;2024-01-15T00:52:32;2.70;;;1.88;;
78774;SDS011;68119;43.398;3.676;2024-01-15T00:54:58;3.17;;;2.25;;
78774;SDS011;68119;43.398;3.676;2024-01-15T00:57:27;2.20;;;1.85;;
78774;SDS011;68119;43.398;3.676;2024-01-15T01:02:28;2.20;;;1.70;;
78774;SDS011;68119;43.398;3.676;2024-01-15T01:05:07;3.75;;;2.00;;
78774;SDS011;68119;43.398;3.676;2024-01-15T01:07:34;2.58;;;1.77;;
78774;SDS011;68119;43.398;3.676;2024-01-15T01:10:01;3.05;;;2.13;;
78774;SDS011;68119;43.398;3.676;2024-01-15T01:12:27;3.50;;;1.98;;
78774;SDS011;68119;43.398;3.676;2024-01-15T01:15:02;3.50;;;2.00;;
78774;SDS011;68119;43.398;3.676;2024-01-15T01:17:29;4.95;;;2.10;;
78774;SDS011;68119;43.398;3.676;2024-01-15T01:19:55;4.05;;;2.00;;
78774;SDS011;68119;43.398;3.676;2024-01-15T01:22:23;2.03;;;1.73;;
78774;SDS011;68119;43.398;3.676;2024-01-15T01:24:52;4.72;;;2.00;;
78774;SDS011;68119;43.398;3.676;2024-01-15T01:27:18;3.10;;;1.95;;
78774;SDS011;68119;43.398;3.676;2024-01-15T01:29:47;3.53;;;2.20;;
78774;SDS011;68119;43.398;3.676;2024-01-15T01:32:17;4.70;;;2.30;;
78774;SDS011;68119;43.398;3.676;2024-01-15T01:34:44;3.00;;;1.98;;
78774;SDS011;68119;43.398;3.676;2024-01-15T01:37:11;2.83;;;2.10;;
78774;SDS011;68119;43.398;3.676;2024-01-15T01:39:43;2.88;;;2.20;;
78774;SDS011;68119;43.398;3.676;2024-01-15T01:42:10;3.05;;;2.00;;
78774;SDS011;68119;43.398;3.676;2024-01-15T01:44:38;3.10;;;2.15;;
78774;SDS011;68119;43.398;3.676;2024-01-15T01:47:16;3.47;;;1.90;;
78774;SDS011;68119;43.398;3.676;2024-01-15T01:49:43;3.83;;;2.08;;
78774;SDS011;68119;43.398;3.676;2024-01-15T01:52:12;2.65;;;1.90;;
78774;SDS011;68119;43.398;3.676;2024-01-15T01:54:41;4.68;;;2.00;;
78774;SDS011;68119;43.398;3.676;2024-01-15T01:57:08;4.45;;;2.20;;
78774;SDS011;68119;43.398;3.676;2024-01-15T01:59:36;2.60;;;1.80;;
78774;SDS011;68119;43.398;3.676;2024-01-15T02:02:04;3.50;;;1.90;;
78774;SDS011;68119;43.398;3.676;2024-01-15T02:04:39;3.22;;;2.42;;
78774;SDS011;68119;43.398;3.676;2024-01-15T02:07:05;3.33;;;2.13;;
78774;SDS011;68119;43.398;3.676;2024-01-15T02:09:32;5.22;;;2.10;;
78774;SDS011;68119;43.398;3.676;2024-01-15T02:12:04;3.65;;;2.08;;
78774;SDS011;68119;43.398;3.676;2024-01-15T02:14:33;3.15;;;2.40;;
78774;SDS011;68119;43.398;3.676;2024-01-15T02:17:02;3.80;;;2.13;;
78774;SDS011;68119;43.398;3.676;2024-01-15T02:19:29;3.85;;;2.40;;
78774;SDS011;68119;43.398;3.676;2024-01-15T02:21:55;3.25;;;2.22;;
78774;SDS011;68119;43.398;3.676;2024-01-15T02:24:22;3.65;;;2.33;;
78774;SDS011;68119;43.398;3.676;2024-01-15T02:26:53;3.83;;;2.30;;
78774;SDS011;68119;43.398;3.676;2024-01-15T02:29:30;5.85;;;2.53;;
78774;SDS011;68119;43.398;3.676;2024-01-15T02:31:56;4.25;;;2.67;;
78774;SDS011;68119;43.398;3.676;2024-01-15T02:34:25;3.67;;;2.47;;
78774;SDS011;68119;43.398;3.676;2024-01-15T02:37:08;5.45;;;2.58;;
78774;SDS011;68119;43.398;3.676;2024-01-15T02:39:35;3.05;;;2.20;;
78774;SDS011;68119;43.398;3.676;2024-01-15T02:42:04;2.95;;;2.20;;
78774;SDS011;68119;43.398;3.676;2024-01-15T02:44:31;3.88;;;2.65;;
78774;SDS011;68119;43.398;3.676;2024-01-15T02:47:02;4.47;;;2.67;;
78774;SDS011;68119;43.398;3.676;2024-01-15T02:49:35;3.97;;;2.38;;
78774;SDS011;68119;43.398;3.676;2024-01-15T02:52:01;4.10;;;2.75;;
78774;SDS011;68119;43.398;3.676;2024-01-15T02:54:29;6.30;;;2.75;;
78774;SDS011;68119;43.398;3.676;2024-01-15T02:57:02;4.85;;;2.97;;
78774;SDS011;68119;43.398;3.676;2024-01-15T02:59:32;6.18;;;2.80;;
78774;SDS011;68119;43.398;3.676;2024-01-15T03:02:07;5.05;;;3.30;;
78774;SDS011;68119;43.398;3.676;2024-01-15T03:04:49;6.07;;;3.38;;
78774;SDS011;68119;43.398;3.676;2024-01-15T03:07:18;5.55;;;3.30;;
78774;SDS011;68119;43.398;3.676;2024-01-15T03:10:12;7.22;;;3.58;;
78774;SDS011;68119;43.398;3.676;2024-01-15T03:15:50;6.53;;;3.50;;
78774;SDS011;68119;43.398;3.676;2024-01-15T03:18:16;5.38;;;3.28;;
78774;SDS011;68119;43.398;3.676;2024-01-15T03:20:52;6.55;;;3.75;;
78774;SDS011;68119;43.398;3.676;2024-01-15T03:23:20;5.32;;;3.45;;
78774;SDS011;68119;43.398;3.676;2024-01-15T03:25:52;6.20;;;3.38;;
78774;SDS011;68119;43.398;3.676;2024-01-15T03:28:21;5.43;;;3.50;;
78774;SDS011;68119;43.398;3.676;2024-01-15T03:30:59;5.65;;;3.45;;
78774;SDS011;68119;43.398;3.676;2024-01-15T03:33:26;6.65;;;3.65;;
78774;SDS011;68119;43.398;3.676;2024-01-15T03:35:57;5.38;;;3.40;;
78774;SDS011;68119;43.398;3.676;2024-01-15T03:38:23;5.70;;;3.70;;
78774;SDS011;68119;43.398;3.676;2024-01-15T03:41:02;8.15;;;3.58;;
78774;SDS011;68119;43.398;3.676;2024-01-15T03:43:29;5.85;;;3.53;;
78774;SDS011;68119;43.398;3.676;2024-01-15T03:45:55;5.78;;;3.38;;
78774;SDS011;68119;43.398;3.676;2024-01-15T03:48:23;5.47;;;3.30;;
78774;SDS011;68119;43.398;3.676;2024-01-15T03:50:49;8.27;;;4.40;;
78774;SDS011;68119;43.398;3.676;2024-01-15T03:53:18;6.30;;;4.07;;
78774;SDS011;68119;43.398;3.676;2024-01-15T03:55:50;5.28;;;3.78;;
78774;SDS011;68119;43.398;3.676;2024-01-15T03:58:29;6.20;;;3.65;;
78774;SDS011;68119;43.398;3.676;2024-01-15T04:01:03;5.97;;;3.80;;
78774;SDS011;68119;43.398;3.676;2024-01-15T04:03:36;8.02;;;4.03;;
78774;SDS011;68119;43.398;3.676;2024-01-15T04:06:03;6.05;;;3.97;;
78774;SDS011;68119;43.398;3.676;2024-01-15T04:08:30;8.45;;;4.38;;
78774;SDS011;68119;43.398;3.676;2024-01-15T04:10:56;9.10;;;3.90;;
78774;SDS011;68119;43.398;3.676;2024-01-15T04:13:23;8.57;;;3.63;;
78774;SDS011;68119;43.398;3.676;2024-01-15T04:15:50;7.10;;;4.22;;
78774;SDS011;68119;43.398;3.676;2024-01-15T04:18:21;10.68;;;3.53;;
78774;SDS011;68119;43.398;3.676;2024-01-15T04:20:48;5.30;;;3.50;;
78774;SDS011;68119;43.398;3.676;2024-01-15T04:23:14;5.93;;;3.63;;
78774;SDS011;68119;43.398;3.676;2024-01-15T04:25:40;5.20;;;3.35;;
78774;SDS011;68119;43.398;3.676;2024-01-15T04:28:14;7.10;;;4.05;;
78774;SDS011;68119;43.398;3.676;2024-01-15T04:30:43;6.57;;;3.70;;
78774;SDS011;68119;43.398;3.676;2024-01-15T04:33:10;4.47;;;3.20;;
78774;SDS011;68119;43.398;3.676;2024-01-15T04:35:39;6.60;;;3.40;;
78774;SDS011;68119;43.398;3.676;2024-01-15T04:38:15;4.93;;;3.35;;
78774;SDS011;68119;43.398;3.676;2024-01-15T04:40:44;5.15;;;3.35;;
78774;SDS011;68119;43.398;3.676;2024-01-15T04:43:12;4.45;;;3.15;;
78774;SDS011;68119;43.398;3.676;2024-01-15T04:45:39;5.20;;;3.22;;
78774;SDS011;68119;43.398;3.676;2024-01-15T04:48:10;4.10;;;2.90;;
78774;SDS011;68119;43.398;3.676;2024-01-15T04:50:36;4.65;;;2.97;;
78774;SDS011;68119;43.398;3.676;2024-01-15T04:53:03;4.43;;;2.97;;
78774;SDS011;68119;43.398;3.676;2024-01-15T04:55:32;4.43;;;3.25;;
78774;SDS011;68119;43.398;3.676;2024-01-15T04:57:59;6.57;;;3.60;;
78774;SDS011;68119;43.398;3.676;2024-01-15T05:03:15;5.70;;;3.70;;
78774;SDS011;68119;43.398;3.676;2024-01-15T05:05:42;5.65;;;3.47;;
78774;SDS011;68119;43.398;3.676;2024-01-15T05:08:08;5.70;;;3.78;;
78774;SDS011;68119;43.398;3.676;2024-01-15T05:10:37;7.38;;;4.18;;
78774;SDS011;68119;43.398;3.676;2024-01-15T05:13:03;6.45;;;3.60;;
78774;SDS011;68119;43.398;3.676;2024-01-15T05:15:30;5.18;;;3.53;;
78774;SDS011;68119;43.398;3.676;2024-01-15T05:17:59;5.65;;;3.80;;
78774;SDS011;68119;43.398;3.676;2024-01-15T05:20:26;5.78;;;3.90;;
78774;SDS011;68119;43.398;3.676;2024-01-15T05:22:55;6.97;;;3.97;;
78774;SDS011;68119;43.398;3.676;2024-01-15T05:25:21;7.00;;;3.90;;
78774;SDS011;68119;43.398;3.676;2024-01-15T05:30:48;7.55;;;4.25;;
78774;SDS011;68119;43.398;3.676;2024-01-15T05:33:21;6.55;;;4.13;;
78774;SDS011;68119;43.398;3.676;2024-01-15T05:35:51;8.63;;;4.30;;
78774;SDS011;68119;43.398;3.676;2024-01-15T05:38:20;6.63;;;4.22;;
78774;SDS011;68119;43.398;3.676;2024-01-15T05:40:46;6.35;;;3.78;;
78774;SDS011;68119;43.398;3.676;2024-01-15T05:43:13;6.13;;;3.97;;
78774;SDS011;68119;43.398;3.676;2024-01-15T05:45:42;6.55;;;3.83;;
78774;SDS011;68119;43.398;3.676;2024-01-15T05:48:12;5.78;;;4.00;;
78774;SDS011;68119;43.398;3.676;2024-01-15T05:50:44;7.20;;;4.10;;
78774;SDS011;68119;43.398;3.676;2024-01-15T05:53:17;5.82;;;3.97;;
78774;SDS011;68119;43.398;3.676;2024-01-15T05:55:44;6.65;;;4.13;;
78774;SDS011;68119;43.398;3.676;2024-01-15T05:58:13;6.32;;;4.00;;
78774;SDS011;68119;43.398;3.676;2024-01-15T06:00:42;6.43;;;4.22;;
78774;SDS011;68119;43.398;3.676;2024-01-15T06:03:09;7.45;;;4.25;;
78774;SDS011;68119;43.398;3.676;2024-01-15T06:05:35;6.10;;;3.95;;
78774;SDS011;68119;43.398;3.676;2024-01-15T06:08:02;6.68;;;4.28;;
78774;SDS011;68119;43.398;3.676;2024-01-15T06:10:29;7.75;;;4.45;;
78774;SDS011;68119;43.398;3.676;2024-01-15T06:12:57;7.72;;;4.32;;
78774;SDS011;68119;43.398;3.676;2024-01-15T06:15:23;8.32;;;4.32;;
78774;SDS011;68119;43.398;3.676;2024-01-15T06:17:55;7.85;;;4.45;;
78774;SDS011;68119;43.398;3.676;2024-01-15T06:20:23;7.18;;;4.20;;
78774;SDS011;68119;43.398;3.676;2024-01-15T06:22:52;7.13;;;4.25;;
78774;SDS011;68119;43.398;3.676;2024-01-15T06:25:19;7.63;;;4.45;;
78774;SDS011;68119;43.398;3.676;2024-01-15T06:27:50;7.22;;;4.30;;
78774;SDS011;68119;43.398;3.676;2024-01-15T06:30:17;7.40;;;4.30;;
78774;SDS011;68119;43.398;3.676;2024-01-15T06:35:13;10.52;;;6.78;;
78774;SDS011;68119;43.398;3.676;2024-01-15T06:37:40;8.70;;;5.07;;
78774;SDS011;68119;43.398;3.676;2024-01-15T06:40:09;12.35;;;6.88;;
78774;SDS011;68119;43.398;3.676;2024-01-15T06:42:38;9.02;;;5.60;;
78774;SDS011;68119;43.398;3.676;2024-01-15T06:45:12;13.02;;;7.97;;
78774;SDS011;68119;43.398;3.676;2024-01-15T06:47:41;11.43;;;7.32;;
78774;SDS011;68119;43.398;3.676;2024-01-15T06:50:11;10.00;;;6.20;;
78774;SDS011;68119;43.398;3.676;2024-01-15T06:52:37;9.80;;;6.60;;
78774;SDS011;68119;43.398;3.676;2024-01-15T06:55:12;10.13;;;5.20;;
78774;SDS011;68119;43.398;3.676;2024-01-15T06:57:39;9.68;;;5.10;;
78774;SDS011;68119;43.398;3.676;2024-01-15T07:00:15;12.70;;;5.63;;
78774;SDS011;68119;43.398;3.676;2024-01-15T07:02:47;8.20;;;4.82;;
78774;SDS011;68119;43.398;3.676;2024-01-15T07:05:16;9.50;;;4.85;;
78774;SDS011;68119;43.398;3.676;2024-01-15T07:07:43;7.03;;;4.63;;
78774;SDS011;68119;43.398;3.676;2024-01-15T07:10:12;8.93;;;4.88;;
78774;SDS011;68119;43.398;3.676;2024-01-15T07:12:41;6.75;;;4.47;;
78774;SDS011;68119;43.398;3.676;2024-01-15T07:15:24;7.47;;;4.50;;
78774;SDS011;68119;43.398;3.676;2024-01-15T07:17:56;8.07;;;4.75;;
78774;SDS011;68119;43.398;3.676;2024-01-15T07:20:28;8.63;;;4.47;;
78774;SDS011;68119;43.398;3.676;2024-01-15T07:23:00;8.60;;;4.93;;
78774;SDS011;68119;43.398;3.676;2024-01-15T07:25:44;10.32;;;6.30;;
78774;SDS011;68119;43.398;3.676;2024-01-15T07:28:13;10.10;;;5.28;;
78774;SDS011;68119;43.398;3.676;2024-01-15T07:30:39;11.73;;;6.28;;
78774;SDS011;68119;43.398;3.676;2024-01-15T07:33:06;10.18;;;6.15;;
78774;SDS011;68119;43.398;3.676;2024-01-15T07:35:35;10.13;;;5.93;;
78774;SDS011;68119;43.398;3.676;2024-01-15T07:38:04;8.75;;;5.05;;
78774;SDS011;68119;43.398;3.676;2024-01-15T07:40:33;9.80;;;4.80;;
78774;SDS011;68119;43.398;3.676;2024-01-15T07:43:02;7.68;;;4.32;;
78774;SDS011;68119;43.398;3.676;2024-01-15T07:45:32;7.10;;;4.18;;
78774;SDS011;68119;43.398;3.676;2024-01-15T07:48:04;8.68;;;5.20;;
78774;SDS011;68119;43.398;3.676;2024-01-15T07:50:33;9.32;;;5.35;;
78774;SDS011;68119;43.398;3.676;2024-01-15T07:53:02;9.20;;;5.00;;
78774;SDS011;68119;43.398;3.676;2024-01-15T07:55:29;7.70;;;4.30;;
78774;SDS011;68119;43.398;3.676;2024-01-15T07:57:55;9.55;;;5.95;;
78774;SDS011;68119;43.398;3.676;2024-01-15T08:00:24;7.60;;;5.00;;
78774;SDS011;68119;43.398;3.676;2024-01-15T08:02:56;6.88;;;4.43;;
78774;SDS011;68119;43.398;3.676;2024-01-15T08:05:25;6.95;;;4.22;;
78774;SDS011;68119;43.398;3.676;2024-01-15T08:07:51;7.85;;;4.13;;
78774;SDS011;68119;43.398;3.676;2024-01-15T08:10:17;6.30;;;4.03;;
78774;SDS011;68119;43.398;3.676;2024-01-15T08:12:44;6.10;;;3.90;;
78774;SDS011;68119;43.398;3.676;2024-01-15T08:15:13;7.70;;;4.15;;
78774;SDS011;68119;43.398;3.676;2024-01-15T08:17:39;6.18;;;3.83;;
78774;SDS011;68119;43.398;3.676;2024-01-15T08:20:06;7.68;;;3.97;;
78774;SDS011;68119;43.398;3.676;2024-01-15T08:22:35;11.68;;;6.25;;
78774;SDS011;68119;43.398;3.676;2024-01-15T08:25:04;9.43;;;4.68;;
78774;SDS011;68119;43.398;3.676;2024-01-15T08:27:33;7.93;;;4.88;;
78774;SDS011;68119;43.398;3.676;2024-01-15T08:30:04;6.97;;;4.30;;
78774;SDS011;68119;43.398;3.676;2024-01-15T08:32:31;7.57;;;4.40;;
78774;SDS011;68119;43.398;3.676;2024-01-15T08:35:02;6.32;;;3.88;;
78774;SDS011;68119;43.398;3.676;2024-01-15T08:37:29;6.28;;;4.10;;
78774;SDS011;68119;43.398;3.676;2024-01-15T08:39:58;7.85;;;3.97;;
78774;SDS011;68119;43.398;3.676;2024-01-15T08:42:24;6.35;;;4.10;;
78774;SDS011;68119;43.398;3.676;2024-01-15T08:44:55;7.35;;;3.83;;
78774;SDS011;68119;43.398;3.676;2024-01-15T08:47:24;6.22;;;4.25;;
78774;SDS011;68119;43.398;3.676;2024-01-15T08:49:57;15.20;;;4.63;;
78774;SDS011;68119;43.398;3.676;2024-01-15T08:52:29;6.18;;;3.78;;
78774;SDS011;68119;43.398;3.676;2024-01-15T08:54:59;4.95;;;3.42;;
78774;SDS011;68119;43.398;3.676;2024-01-15T08:57:26;5.85;;;3.90;;
78774;SDS011;68119;43.398;3.676;2024-01-15T08:59:52;6.60;;;3.92;;
78774;SDS011;68119;43.398;3.676;2024-01-15T09:02:19;5.88;;;3.72;;
78774;SDS011;68119;43.398;3.676;2024-01-15T09:04:46;6.38;;;3.20;;
78774;SDS011;68119;43.398;3.676;2024-01-15T09:07:14;5.68;;;3.60;;
78774;SDS011;68119;43.398;3.676;2024-01-15T09:09:41;4.85;;;3.10;;
78774;SDS011;68119;43.398;3.676;2024-01-15T09:12:08;4.60;;;3.10;;
78774;SDS011;68119;43.398;3.676;2024-01-15T09:14:40;4.32;;;3.08;;
78774;SDS011;68119;43.398;3.676;2024-01-15T09:17:09;6.05;;;3.40;;
78774;SDS011;68119;43.398;3.676;2024-01-15T09:19:38;6.35;;;3.25;;
78774;SDS011;68119;43.398;3.676;2024-01-15T09:22:08;5.70;;;3.60;;
78774;SDS011;68119;43.398;3.676;2024-01-15T09:24:34;5.10;;;3.50;;
78774;SDS011;68119;43.398;3.676;2024-01-15T09:27:10;5.95;;;3.70;;
78774;SDS011;68119;43.398;3.676;2024-01-15T09:29:36;6.30;;;3.85;;
78774;SDS011;68119;43.398;3.676;2024-01-15T09:32:09;7.90;;;4.32;;
78774;SDS011;68119;43.398;3.676;2024-01-15T09:34:37;5.30;;;3.53;;
78774;SDS011;68119;43.398;3.676;2024-01-15T09:37:06;6.00;;;3.47;;
78774;SDS011;68119;43.398;3.676;2024-01-15T09:39:37;6.95;;;4.00;;
78774;SDS011;68119;43.398;3.676;2024-01-15T09:42:06;6.28;;;4.20;;
78774;SDS011;68119;43.398;3.676;2024-01-15T09:44:32;9.10;;;5.43;;
78774;SDS011;68119;43.398;3.676;2024-01-15T09:47:03;14.77;;;6.60;;
78774;SDS011;68119;43.398;3.676;2024-01-15T09:49:32;8.48;;;4.95;;
78774;SDS011;68119;43.398;3.676;2024-01-15T09:52:02;7.20;;;3.90;;
78774;SDS011;68119;43.398;3.676;2024-01-15T09:54:31;5.95;;;3.17;;
78774;SDS011;68119;43.398;3.676;2024-01-15T09:57:03;9.57;;;3.72;;
78774;SDS011;68119;43.398;3.676;2024-01-15T09:59:37;8.30;;;4.15;;
78774;SDS011;68119;43.398;3.676;2024-01-15T10:02:09;5.90;;;3.63;;
78774;SDS011;68119;43.398;3.676;2024-01-15T10:04:41;4.00;;;3.03;;
78774;SDS011;68119;43.398;3.676;2024-01-15T10:07:13;6.45;;;2.92;;
78774;SDS011;68119;43.398;3.676;2024-01-15T10:09:43;4.20;;;2.72;;
78774;SDS011;68119;43.398;3.676;2024-01-15T10:12:12;6.53;;;3.70;;
78774;SDS011;68119;43.398;3.676;2024-01-15T10:14:49;6.38;;;3.33;;
78774;SDS011;68119;43.398;3.676;2024-01-15T10:17:19;6.78;;;4.20;;
78774;SDS011;68119;43.398;3.676;2024-01-15T10:19:48;8.48;;;4.90;;
78774;SDS011;68119;43.398;3.676;2024-01-15T10:22:16;7.50;;;4.93;;
78774;SDS011;68119;43.398;3.676;2024-01-15T10:24:43;4.88;;;3.10;;
78774;SDS011;68119;43.398;3.676;2024-01-15T10:27:15;3.75;;;2.50;;
78774;SDS011;68119;43.398;3.676;2024-01-15T10:29:44;4.10;;;2.58;;
78774;SDS011;68119;43.398;3.676;2024-01-15T10:32:13;5.00;;;3.17;;
78774;SDS011;68119;43.398;3.676;2024-01-15T10:34:43;4.03;;;2.70;;
78774;SDS011;68119;43.398;3.676;2024-01-15T10:37:11;7.88;;;4.05;;
78774;SDS011;68119;43.398;3.676;2024-01-15T10:39:53;4.03;;;2.75;;
78774;SDS011;68119;43.398;3.676;2024-01-15T10:42:21;4.22;;;2.67;;
78774;SDS011;68119;43.398;3.676;2024-01-15T10:47:34;5.13;;;2.92;;
78774;SDS011;68119;43.398;3.676;2024-01-15T10:50:07;3.97;;;2.30;;
78774;SDS011;68119;43.398;3.676;2024-01-15T10:52:40;4.20;;;2.70;;
78774;SDS011;68119;43.398;3.676;2024-01-15T10:55:26;3.67;;;2.20;;
78774;SDS011;68119;43.398;3.676;2024-01-15T10:57:52;3.17;;;2.33;;
78774;SDS011;68119;43.398;3.676;2024-01-15T11:00:24;4.18;;;2.47;;
78774;SDS011;68119;43.398;3.676;2024-01-15T11:02:51;3.38;;;2.28;;
78774;SDS011;68119;43.398;3.676;2024-01-15T11:05:21;5.57;;;2.60;;
78774;SDS011;68119;43.398;3.676;2024-01-15T11:07:50;4.15;;;2.40;;
78774;SDS011;68119;43.398;3.676;2024-01-15T11:16:04;7.28;;;4.30;;
78774;SDS011;68119;43.398;3.676;2024-01-15T11:18:40;5.50;;;3.20;;
78774;SDS011;68119;43.398;3.676;2024-01-15T11:24:08;3.47;;;2.30;;
78774;SDS011;68119;43.398;3.676;2024-01-15T11:26:44;3.78;;;2.50;;
78774;SDS011;68119;43.398;3.676;2024-01-15T11:31:57;4.35;;;2.05;;
78774;SDS011;68119;43.398;3.676;2024-01-15T11:37:09;4.63;;;2.17;;
78774;SDS011;68119;43.398;3.676;2024-01-15T11:39:44;2.90;;;2.00;;
78774;SDS011;68119;43.398;3.676;2024-01-15T11:42:12;2.58;;;1.90;;
78774;SDS011;68119;43.398;3.676;2024-01-15T11:44:39;6.38;;;2.95;;
78774;SDS011;68119;43.398;3.676;2024-01-15T11:47:06;5.25;;;2.45;;
78774;SDS011;68119;43.398;3.676;2024-01-15T11:52:16;3.05;;;2.00;;
78774;SDS011;68119;43.398;3.676;2024-01-15T11:57:22;3.22;;;2.40;;
78774;SDS011;68119;43.398;3.676;2024-01-15T11:59:54;3.15;;;2.35;;
78774;SDS011;68119;43.398;3.676;2024-01-15T12:02:23;8.05;;;4.40;;
78774;SDS011;68119;43.398;3.676;2024-01-15T12:04:52;9.75;;;5.30;;
78774;SDS011;68119;43.398;3.676;2024-01-15T12:07:18;4.68;;;2.90;;
78774;SDS011;68119;43.398;3.676;2024-01-15T12:09:45;7.05;;;4.00;;
78774;SDS011;68119;43.398;3.676;2024-01-15T12:12:16;4.75;;;2.70;;
78774;SDS011;68119;43.398;3.676;2024-01-15T12:14:49;9.18;;;5.85;;
78774;SDS011;68119;43.398;3.676;2024-01-15T12:17:18;25.80;;;16.77;;
78774;SDS011;68119;43.398;3.676;2024-01-15T12:19:47;3.70;;;2.83;;
78774;SDS011;68119;43.398;3.676;2024-01-15T12:22:13;4.15;;;2.60;;
78774;SDS011;68119;43.398;3.676;2024-01-15T12:24:40;3.40;;;2.70;;
78774;SDS011;68119;43.398;3.676;2024-01-15T12:27:07;7.78;;;4.57;;
78774;SDS011;68119;43.398;3.676;2024-01-15T12:29:37;18.58;;;9.55;;
78774;SDS011;68119;43.398;3.676;2024-01-15T12:32:04;9.40;;;5.13;;
78774;SDS011;68119;43.398;3.676;2024-01-15T12:34:33;9.45;;;4.93;;
78774;SDS011;68119;43.398;3.676;2024-01-15T12:37:00;6.82;;;3.60;;
78774;SDS011;68119;43.398;3.676;2024-01-15T12:39:34;15.43;;;8.27;;
78774;SDS011;68119;43.398;3.676;2024-01-15T12:42:01;6.90;;;3.65;;
78774;SDS011;68119;43.398;3.676;2024-01-15T12:44:28;5.80;;;3.60;;
78774;SDS011;68119;43.398;3.676;2024-01-15T12:46:57;7.85;;;5.07;;
78774;SDS011;68119;43.398;3.676;2024-01-15T12:49:24;6.07;;;3.80;;
78774;SDS011;68119;43.398;3.676;2024-01-15T12:51:53;7.28;;;4.82;;
78774;SDS011;68119;43.398;3.676;2024-01-15T12:54:20;8.25;;;4.78;;
78774;SDS011;68119;43.398;3.676;2024-01-15T12:56:52;9.88;;;7.85;;
78774;SDS011;68119;43.398;3.676;2024-01-15T12:59:20;6.75;;;5.20;;
78774;SDS011;68119;43.398;3.676;2024-01-15T13:01:49;7.90;;;5.25;;
78774;SDS011;68119;43.398;3.676;2024-01-15T13:04:22;11.35;;;8.20;;
78774;SDS011;68119;43.398;3.676;2024-01-15T13:06:53;7.45;;;4.18;;
78774;SDS011;68119;43.398;3.676;2024-01-15T13:09:20;4.80;;;3.45;;
78774;SDS011;68119;43.398;3.676;2024-01-15T13:11:49;5.85;;;3.55;;
78774;SDS011;68119;43.398;3.676;2024-01-15T13:14:17;5.85;;;3.00;;
78774;SDS011;68119;43.398;3.676;2024-01-15T13:16:46;5.90;;;3.08;;
78774;SDS011;68119;43.398;3.676;2024-01-15T13:19:13;5.55;;;3.03;;
78774;SDS011;68119;43.398;3.676;2024-01-15T13:21:40;4.30;;;2.60;;
78774;SDS011;68119;43.398;3.676;2024-01-15T13:24:09;5.30;;;3.17;;
78774;SDS011;68119;43.398;3.676;2024-01-15T13:26:36;5.45;;;3.47;;
78774;SDS011;68119;43.398;3.676;2024-01-15T13:29:05;5.07;;;3.08;;
78774;SDS011;68119;43.398;3.676;2024-01-15T13:31:32;4.57;;;3.00;;
78774;SDS011;68119;43.398;3.676;2024-01-15T13:33:59;4.53;;;2.90;;
78774;SDS011;68119;43.398;3.676;2024-01-15T13:36:26;6.35;;;3.58;;
78774;SDS011;68119;43.398;3.676;2024-01-15T13:38:54;6.15;;;3.40;;
78774;SDS011;68119;43.398;3.676;2024-01-15T13:41:23;4.97;;;2.83;;
78774;SDS011;68119;43.398;3.676;2024-01-15T13:43:55;6.55;;;3.30;;
78774;SDS011;68119;43.398;3.676;2024-01-15T13:46:25;5.57;;;2.97;;
78774;SDS011;68119;43.398;3.676;2024-01-15T13:48:52;4.68;;;2.55;;
78774;SDS011;68119;43.398;3.676;2024-01-15T13:51:21;4.93;;;2.65;;
78774;SDS011;68119;43.398;3.676;2024-01-15T13:53:51;4.78;;;2.70;;
78774;SDS011;68119;43.398;3.676;2024-01-15T13:56:20;3.25;;;2.30;;
78774;SDS011;68119;43.398;3.676;2024-01-15T13:58:46;4.20;;;2.70;;
78774;SDS011;68119;43.398;3.676;2024-01-15T14:01:13;5.57;;;3.38;;
78774;SDS011;68119;43.398;3.676;2024-01-15T14:03:40;4.88;;;3.00;;
78774;SDS011;68119;43.398;3.676;2024-01-15T14:06:06;5.78;;;3.58;;
78774;SDS011;68119;43.398;3.676;2024-01-15T14:08:39;5.13;;;3.47;;
78774;SDS011;68119;43.398;3.676;2024-01-15T14:11:05;3.95;;;3.05;;
78774;SDS011;68119;43.398;3.676;2024-01-15T14:13:32;4.60;;;2.45;;
78774;SDS011;68119;43.398;3.676;2024-01-15T14:15:59;4.95;;;2.45;;
78774;SDS011;68119;43.398;3.676;2024-01-15T14:18:28;3.22;;;2.20;;
78774;SDS011;68119;43.398;3.676;2024-01-15T14:20:55;1.95;;;1.60;;
78774;SDS011;68119;43.398;3.676;2024-01-15T14:23:26;3.90;;;2.28;;
78774;SDS011;68119;43.398;3.676;2024-01-15T14:25:55;2.80;;;1.77;;
78774;SDS011;68119;43.398;3.676;2024-01-15T14:28:24;3.40;;;1.40;;
78774;SDS011;68119;43.398;3.676;2024-01-15T14:30:50;2.65;;;1.30;;
78774;SDS011;68119;43.398;3.676;2024-01-15T14:33:17;1.60;;;0.90;;
78774;SDS011;68119;43.398;3.676;2024-01-15T14:35:43;2.53;;;1.42;;
78774;SDS011;68119;43.398;3.676;2024-01-15T14:38:15;0.93;;;0.93;;
78774;SDS011;68119;43.398;3.676;2024-01-15T14:40:46;1.08;;;1.00;;
78774;SDS011;68119;43.398;3.676;2024-01-15T14:43:12;0.55;;;0.55;;
78774;SDS011;68119;43.398;3.676;2024-01-15T14:45:44;1.45;;;0.98;;
78774;SDS011;68119;43.398;3.676;2024-01-15T14:48:13;1.02;;;0.82;;
78774;SDS011;68119;43.398;3.676;2024-01-15T14:50:43;0.77;;;0.75;;
78774;SDS011;68119;43.398;3.676;2024-01-15T14:53:15;1.08;;;0.80;;
78774;SDS011;68119;43.398;3.676;2024-01-15T14:55:44;1.73;;;0.85;;
78774;SDS011;68119;43.398;3.676;2024-01-15T14:58:10;1.55;;;0.93;;
78774;SDS011;68119;43.398;3.676;2024-01-15T15:00:37;1.02;;;0.75;;
78774;SDS011;68119;43.398;3.676;2024-01-15T15:03:06;1.55;;;0.80;;
78774;SDS011;68119;43.398;3.676;2024-01-15T15:05:35;1.20;;;1.10;;
78774;SDS011;68119;43.398;3.676;2024-01-15T15:08:02;0.60;;;0.60;;
78774;SDS011;68119;43.398;3.676;2024-01-15T15:10:36;1.38;;;0.77;;
78774;SDS011;68119;43.398;3.676;2024-01-15T15:13:04;0.60;;;0.60;;
78774;SDS011;68119;43.398;3.676;2024-01-15T15:15:30;0.73;;;0.68;;
78774;SDS011;68119;43.398;3.676;2024-01-15T15:18:12;1.30;;;1.20;;
78774;SDS011;68119;43.398;3.676;2024-01-15T15:20:40;4.13;;;2.25;;
78774;SDS011;68119;43.398;3.676;2024-01-15T15:23:07;1.95;;;1.50;;
78774;SDS011;68119;43.398;3.676;2024-01-15T15:25:36;1.00;;;1.00;;
78774;SDS011;68119;43.398;3.676;2024-01-15T15:28:09;2.08;;;1.10;;
78774;SDS011;68119;43.398;3.676;2024-01-15T15:30:43;1.38;;;1.27;;
78774;SDS011;68119;43.398;3.676;2024-01-15T15:38:40;1.30;;;1.13;;
78774;SDS011;68119;43.398;3.676;2024-01-15T15:41:09;1.58;;;1.10;;
78774;SDS011;68119;43.398;3.676;2024-01-15T15:43:38;2.13;;;1.50;;